Time;durP1;ratioP1;P1;durP2;ratioP2;P2;SDS_P1;SDS_P2;PMS_P1;PMS_P2;Temp;Humidity;BMP_temperature;BMP_pressure;BME280_temperature;BME280_humidity;BME280_pressure;Samples;Min_cycle;Max_cycle;Signal;HPM_P1;HPM_P2
2023/09/08 00:00:57;;;;;;;13.15;9.10;;;21.90;99.90;;;;;;5078149;28;20484;-70
2023/09/08 00:03:23;;;;;;;11.02;8.57;;;21.80;99.90;;;;;;5078108;28;20059;-70
2023/09/08 00:05:48;;;;;;;10.38;7.78;;;21.90;99.90;;;;;;5061755;28;20040;-70
2023/09/08 00:08:15;;;;;;;10.60;8.65;;;21.80;99.90;;;;;;5078141;28;20043;-70
2023/09/08 00:10:40;;;;;;;12.50;8.45;;;21.80;99.90;;;;;;5078432;28;20040;-69
2023/09/08 00:13:06;;;;;;;9.65;8.18;;;;;;;;;;5095071;28;20039;-70
2023/09/08 00:15:36;;;;;;;10.60;8.45;;;19.90;99.90;;;;;;5078653;28;20035;-76
2023/09/08 00:18:02;;;;;;;11.50;8.95;;;20.00;99.90;;;;;;5078279;28;20118;-75
2023/09/08 00:20:28;;;;;;;13.02;8.50;;;21.60;99.90;;;;;;5095359;28;20138;-77
2023/09/08 00:22:53;;;;;;;12.43;8.30;;;21.60;99.90;;;;;;5094883;28;20040;-76
2023/09/08 00:25:19;;;;;;;11.60;8.25;;;21.50;99.90;;;;;;5095011;28;20043;-76
2023/09/08 00:27:45;;;;;;;11.95;8.88;;;21.50;99.90;;;;;;5113382;28;20036;-76
2023/09/08 00:30:11;;;;;;;13.07;9.43;;;21.40;99.90;;;;;;5099308;28;20034;-76
2023/09/08 00:32:37;;;;;;;10.73;8.25;;;21.20;99.90;;;;;;5115189;28;20103;-76
2023/09/08 00:35:10;;;;;;;11.88;8.93;;;21.40;99.90;;;;;;5085424;28;20077;-75
2023/09/08 00:37:36;;;;;;;;;;;20.60;97.80;;;;;;5115174;28;20411;-76
2023/09/08 00:40:01;;;;;;;10.80;8.55;;;19.40;99.90;;;;;;5108131;28;19922;-76
2023/09/08 00:42:27;;;;;;;10.00;8.82;;;20.80;99.90;;;;;;5107307;28;20217;-77
2023/09/08 00:44:53;;;;;;;14.00;9.68;;;21.20;99.90;;;;;;5102413;28;20050;-77
2023/09/08 00:47:19;;;;;;;14.52;8.93;;;;;;;;;;5101012;28;20479;-77
2023/09/08 00:49:45;;;;;;;12.57;8.85;;;21.00;99.90;;;;;;5114071;28;20114;-75
2023/09/08 00:52:11;;;;;;;13.57;8.93;;;19.70;99.90;;;;;;5107508;28;20070;-76
2023/09/08 00:54:37;;;;;;;9.75;8.75;;;21.10;99.90;;;;;;5100170;28;20058;-76
2023/09/08 00:57:03;;;;;;;10.70;9.27;;;;;;;;;;5114043;28;20049;-76
2023/09/08 00:59:32;;;;;;;14.43;9.60;;;20.60;99.90;;;;;;5098282;28;20090;-75
2023/09/08 01:01:58;;;;;;;14.07;9.73;;;;;;;;;;5098739;28;20050;-76
2023/09/08 01:04:24;;;;;;;15.50;9.90;;;;;;;;;;5081704;28;20040;-76
2023/09/08 01:06:51;;;;;;;14.35;9.05;;;19.20;99.00;;;;;;5098129;28;20040;-76
2023/09/08 01:09:18;;;;;;;13.30;9.23;;;19.60;99.90;;;;;;5098316;28;20050;-76
2023/09/08 01:11:44;;;;;;;14.80;9.45;;;20.90;99.90;;;;;;5098137;28;20048;-76
2023/09/08 01:14:13;;;;;;;14.50;9.73;;;19.60;99.90;;;;;;5081725;28;20543;-77
2023/09/08 01:16:40;;;;;;;12.13;9.30;;;21.00;99.90;;;;;;5098646;28;20040;-77
2023/09/08 01:19:11;;;;;;;13.30;9.38;;;18.80;99.90;;;;;;5098467;28;20042;-76
2023/09/08 01:21:37;;;;;;;13.32;8.85;;;;;;;;;;5099136;28;20039;-77
2023/09/08 01:24:38;;;;;;;14.65;9.73;;;19.30;97.50;;;;;;5099422;28;20050;-77
2023/09/08 01:27:05;;;;;;;18.70;9.43;;;19.60;99.90;;;;;;5081079;28;20077;-77
2023/09/08 01:29:32;;;;;;;12.35;9.02;;;19.60;98.40;;;;;;5099973;28;20050;-76
2023/09/08 01:31:58;;;;;;;12.90;9.40;;;19.90;99.90;;;;;;5064574;28;20040;-76
2023/09/08 01:34:24;;;;;;;11.77;9.73;;;18.70;98.20;;;;;;5097781;28;20063;-78
2023/09/08 01:36:50;;;;;;;15.82;9.25;;;;;;;;;;5098261;28;20036;-76
2023/09/08 01:39:16;;;;;;;11.43;9.65;;;;;;;;;;5081297;28;20360;-76
2023/09/08 01:41:42;;;;;;;13.50;9.98;;;;;;;;;;5080595;28;20050;-76
2023/09/08 01:44:10;;;;;;;11.05;8.98;;;18.30;99.90;;;;;;5097395;28;20048;-76
2023/09/08 01:46:36;;;;;;;14.25;10.40;;;18.20;99.90;;;;;;5097191;28;20054;-70
2023/09/08 01:49:02;;;;;;;13.23;9.75;;;;;;;;;;5080025;28;20036;-70
2023/09/08 01:51:27;;;;;;;13.45;9.60;;;18.10;99.90;;;;;;5080073;28;20247;-70
2023/09/08 01:53:53;;;;;;;12.95;10.07;;;18.20;99.90;;;;;;5080505;28;20130;-70
2023/09/08 01:56:19;;;;;;;14.30;10.32;;;20.10;99.90;;;;;;5080025;28;20407;-71
2023/09/08 01:58:44;;;;;;;12.30;9.90;;;18.00;99.90;;;;;;5096905;28;20054;-70
2023/09/08 02:01:10;;;;;;;14.98;10.18;;;20.00;99.90;;;;;;5096834;28;20052;-70
2023/09/08 02:03:36;;;;;;;14.48;9.98;;;;;;;;;;5079871;28;20051;-69
2023/09/08 02:06:02;;;;;;;14.75;10.20;;;18.50;99.90;;;;;;5097060;28;20035;-70
2023/09/08 02:08:27;;;;;;;13.52;10.40;;;19.90;99.90;;;;;;5080029;28;20396;-70
2023/09/08 02:10:53;;;;;;;17.70;10.40;;;18.10;99.90;;;;;;5096528;28;20066;-70
2023/09/08 02:13:19;;;;;;;15.18;10.95;;;;;;;;;;5096774;28;20048;-70
2023/09/08 02:15:45;;;;;;;14.10;9.65;;;20.10;99.90;;;;;;5096625;28;20438;-70
2023/09/08 02:18:12;;;;;;;11.75;9.98;;;;;;;;;;5079481;28;20043;-69
2023/09/08 02:20:38;;;;;;;12.60;10.27;;;19.70;99.90;;;;;;5096492;28;20562;-69
2023/09/08 02:23:06;;;;;;;11.73;9.95;;;18.80;99.50;;;;;;5079374;28;20122;-69
2023/09/08 02:25:32;;;;;;;13.73;9.93;;;;;;;;;;5096255;28;20051;-69
2023/09/08 02:27:58;;;;;;;13.63;10.48;;;19.40;99.90;;;;;;5096529;28;20043;-70
2023/09/08 02:30:24;;;;;;;12.93;9.98;;;;;;;;;;5079340;28;20503;-76
2023/09/08 02:32:50;;;;;;;13.50;9.65;;;17.80;99.90;;;;;;5096464;28;20035;-76
2023/09/08 02:35:16;;;;;;;13.75;9.93;;;18.50;99.50;;;;;;5095986;28;20629;-76
2023/09/08 02:37:42;;;;;;;13.82;10.00;;;18.00;99.90;;;;;;5096498;28;20066;-76
2023/09/08 02:40:07;;;;;;;12.80;10.73;;;18.20;99.90;;;;;;5096473;28;20538;-77
2023/09/08 02:42:33;;;;;;;14.63;11.15;;;17.50;99.90;;;;;;5096133;28;20373;-77
2023/09/08 02:44:59;;;;;;;13.00;11.20;;;19.30;99.90;;;;;;5079644;28;20043;-77
2023/09/08 02:47:25;;;;;;;16.15;11.70;;;18.30;99.90;;;;;;5096363;28;20040;-76
2023/09/08 02:49:51;;;;;;;14.50;11.15;;;19.10;99.90;;;;;;5079120;28;20491;-76
2023/09/08 02:52:19;;;;;;;15.85;11.68;;;;;;;;;;5096400;28;20081;-77
2023/09/08 02:54:45;;;;;;;15.27;11.32;;;18.10;99.90;;;;;;5079373;28;20086;-77
2023/09/08 02:57:11;;;;;;;17.02;11.15;;;17.40;99.90;;;;;;5095631;28;20075;-77
2023/09/08 02:59:37;;;;;;;16.85;11.70;;;;;;;;;;5096059;28;20078;-77
2023/09/08 03:02:03;;;;;;;17.80;11.80;;;19.10;99.90;;;;;;5095642;28;20043;-77
2023/09/08 03:04:29;;;;;;;13.93;10.90;;;17.90;99.90;;;;;;5096199;28;20436;-76
2023/09/08 03:06:54;;;;;;;13.60;10.65;;;19.10;99.90;;;;;;5078847;28;20054;-76
2023/09/08 03:09:20;;;;;;;12.70;10.80;;;19.00;99.90;;;;;;5095902;28;20070;-77
2023/09/08 03:11:46;;;;;;;17.58;10.75;;;19.50;99.90;;;;;;5095816;28;20043;-77
2023/09/08 03:14:12;;;;;;;14.63;12.18;;;;;;;;;;5095732;28;20040;-77
2023/09/08 03:16:37;;;;;;;13.25;11.55;;;18.80;99.90;;;;;;5095577;28;20045;-75
2023/09/08 03:19:03;;;;;;;12.57;10.52;;;;;;;;;;5079119;28;20122;-76
2023/09/08 03:21:30;;;;;;;17.35;12.07;;;;;;;;;;5079147;28;20031;-76
2023/09/08 03:23:55;;;;;;;14.45;11.48;;;17.10;99.90;;;;;;5095775;28;20096;-76
2023/09/08 03:26:21;;;;;;;15.73;10.80;;;;;;;;;;5096436;28;20035;-76
2023/09/08 03:28:47;;;;;;;17.42;12.38;;;;;;;;;;5095747;28;20115;-77
2023/09/08 03:31:13;;;;;;;17.35;11.05;;;17.20;99.90;;;;;;5078562;28;20035;-77
2023/09/08 03:33:39;;;;;;;19.25;11.30;;;;;;;;;;5079091;28;20047;-77
2023/09/08 03:36:05;;;;;;;17.77;11.30;;;19.40;99.90;;;;;;5095045;28;20055;-77
2023/09/08 03:38:31;;;;;;;14.93;11.18;;;19.30;99.90;;;;;;5095541;28;20394;-77
2023/09/08 03:40:56;;;;;;;15.52;11.65;;;19.00;99.90;;;;;;5095395;28;20476;-77
2023/09/08 03:43:22;;;;;;;16.90;11.55;;;18.90;99.90;;;;;;5078376;28;20122;-77
2023/09/08 03:45:48;;;;;;;16.35;11.80;;;;;;;;;;5095150;28;20043;-77
2023/09/08 03:48:14;;;;;;;17.38;11.90;;;18.90;99.90;;;;;;5095729;28;20036;-77
2023/09/08 03:50:40;;;;;;;15.57;12.20;;;17.60;99.90;;;;;;5095624;28;20044;-77
2023/09/08 03:53:06;;;;;;;17.15;11.70;;;18.70;99.90;;;;;;5095258;28;20399;-77
2023/09/08 03:55:31;;;;;;;16.17;12.02;;;17.40;99.90;;;;;;5095434;28;20074;-76
2023/09/08 03:57:58;;;;;;;20.92;12.02;;;;;;;;;;5095725;28;20079;-77
2023/09/08 04:00:23;;;;;;;17.55;12.15;;;17.50;99.90;;;;;;5095574;28;20043;-77
2023/09/08 04:02:50;;;;;;;16.63;11.80;;;;;;;;;;5078751;28;20040;-70
2023/09/08 04:05:19;;;;;;;18.20;12.32;;;17.50;99.90;;;;;;5096046;28;20031;-70
2023/09/08 04:07:47;;;;;;;14.50;12.15;;;18.10;99.90;;;;;;5114041;28;20134;-69
2023/09/08 04:10:13;;;;;;;16.52;11.57;;;17.50;99.90;;;;;;5121588;28;20044;-68
2023/09/08 04:12:42;;;;;;;15.55;11.75;;;17.20;99.90;;;;;;5123823;28;20067;-71
2023/09/08 04:15:09;;;;;;;18.90;11.90;;;17.80;99.90;;;;;;5122302;28;20052;-70
2023/09/08 04:17:36;;;;;;;15.93;11.60;;;;;;;;;;5121130;28;20039;-70
2023/09/08 04:20:06;;;;;;;18.45;12.35;;;17.90;99.90;;;;;;5120196;28;20100;-69
2023/09/08 04:22:32;;;;;;;19.02;13.07;;;17.50;99.90;;;;;;5083327;28;20044;-69
2023/09/08 04:24:58;;;;;;;16.17;12.50;;;16.90;99.90;;;;;;5099143;28;20476;-70
2023/09/08 04:27:24;;;;;;;17.58;12.18;;;16.50;99.90;;;;;;5099132;28;20050;-72
2023/09/08 04:29:50;;;;;;;18.98;12.75;;;;;;;;;;5098704;28;20035;-70
2023/09/08 04:32:16;;;;;;;16.38;12.43;;;18.70;99.90;;;;;;5098737;28;20130;-70
2023/09/08 04:34:42;;;;;;;14.55;11.93;;;17.40;99.90;;;;;;5098849;28;20091;-70
2023/09/08 04:37:08;;;;;;;14.73;12.68;;;17.60;99.90;;;;;;5098824;28;20051;-70
2023/09/08 04:39:35;;;;;;;22.75;12.80;;;17.70;99.90;;;;;;5098646;28;20039;-70
2023/09/08 04:42:01;;;;;;;16.50;12.90;;;17.60;99.90;;;;;;5081483;28;20510;-70
2023/09/08 04:44:27;;;;;;;15.93;12.60;;;16.50;99.90;;;;;;5081939;28;20107;-70
2023/09/08 04:46:53;;;;;;;15.82;12.77;;;18.60;99.90;;;;;;5098598;28;20035;-70
2023/09/08 04:49:19;;;;;;;17.63;13.30;;;;;;;;;;5081936;28;20065;-70
2023/09/08 04:51:45;;;;;;;14.65;11.90;;;;;;;;;;5098961;28;20051;-70
2023/09/08 04:54:11;;;;;;;17.52;12.57;;;17.80;99.90;;;;;;5098501;28;20074;-71
2023/09/08 04:56:39;;;;;;;17.15;13.35;;;16.20;99.90;;;;;;5098449;28;20035;-69
2023/09/08 04:59:05;;;;;;;16.17;12.80;;;16.70;99.90;;;;;;5098540;28;20150;-70
2023/09/08 05:01:32;;;;;;;17.08;13.38;;;;;;;;;;5116405;28;20118;-69
2023/09/08 05:04:02;;;;;;;16.27;13.40;;;17.90;99.90;;;;;;5081186;28;20047;-70
2023/09/08 05:06:27;;;;;;;20.10;13.55;;;17.70;99.90;;;;;;5098222;28;20040;-70
2023/09/08 05:08:54;;;;;;;17.85;13.50;;;;;;;;;;5081324;28;20043;-70
2023/09/08 05:11:19;;;;;;;22.73;13.10;;;16.60;99.90;;;;;;5098008;28;20122;-70
2023/09/08 05:13:46;;;;;;;17.50;13.95;;;16.40;99.90;;;;;;5081026;28;20079;-70
2023/09/08 05:16:12;;;;;;;18.40;14.18;;;;;;;;;;5098101;28;20044;-70
2023/09/08 05:18:39;;;;;;;16.90;13.02;;;17.20;99.90;;;;;;5081121;28;20050;-70
2023/09/08 05:21:05;;;;;;;19.23;13.35;;;18.40;99.90;;;;;;5080502;28;20044;-70
2023/09/08 05:23:31;;;;;;;17.45;13.80;;;16.90;99.90;;;;;;5081271;28;20035;-71
2023/09/08 05:25:57;;;;;;;18.10;12.65;;;16.00;99.90;;;;;;5097834;28;20518;-70
2023/09/08 05:28:22;;;;;;;19.42;13.35;;;17.10;99.90;;;;;;5097863;28;20043;-70
2023/09/08 05:30:51;;;;;;;17.30;13.30;;;18.00;99.90;;;;;;5080895;28;20051;-70
2023/09/08 05:33:17;;;;;;;21.48;13.60;;;16.10;99.90;;;;;;5097894;28;20043;-70
2023/09/08 05:35:43;;;;;;;19.85;13.95;;;16.30;99.90;;;;;;5097788;28;20188;-70
2023/09/08 05:38:09;;;;;;;21.63;13.00;;;16.00;99.90;;;;;;5080791;28;20047;-69
2023/09/08 05:40:35;;;;;;;18.05;13.80;;;16.10;99.90;;;;;;5097704;28;20047;-70
2023/09/08 05:43:02;;;;;;;18.30;13.13;;;18.20;99.90;;;;;;5080669;28;20081;-69
2023/09/08 05:45:28;;;;;;;23.42;14.32;;;18.40;99.90;;;;;;5097760;28;20096;-70
2023/09/08 05:47:54;;;;;;;19.75;14.27;;;;;;;;;;5097408;28;20473;-70
2023/09/08 05:50:19;;;;;;;18.85;13.30;;;17.70;99.90;;;;;;5097624;28;20028;-69
2023/09/08 05:52:45;;;;;;;19.98;13.57;;;17.80;99.90;;;;;;5097367;28;20046;-69
2023/09/08 05:55:11;;;;;;;23.52;14.27;;;16.40;99.90;;;;;;5097043;28;20074;-70
2023/09/08 05:57:37;;;;;;;19.33;13.63;;;18.40;99.90;;;;;;5115502;28;20039;-70
2023/09/08 06:00:06;;;;;;;22.98;15.60;;;16.20;99.90;;;;;;5097350;28;20100;-70
2023/09/08 06:02:32;;;;;;;18.98;14.50;;;;;;;;;;5097268;28;20036;-70
2023/09/08 06:04:58;;;;;;;19.85;14.55;;;16.50;99.90;;;;;;5097036;28;20046;-69
2023/09/08 06:07:24;;;;;;;23.42;14.65;;;16.60;99.90;;;;;;5097184;28;20039;-71
2023/09/08 06:09:50;;;;;;;21.27;14.35;;;;;;;;;;5097208;28;20070;-69
2023/09/08 06:12:15;;;;;;;21.50;14.50;;;18.30;99.90;;;;;;5096758;28;20048;-70
2023/09/08 06:14:41;;;;;;;19.85;14.75;;;17.60;99.90;;;;;;5080284;28;20044;-70
2023/09/08 06:17:08;;;;;;;21.90;14.95;;;16.50;99.90;;;;;;5096620;28;20488;-70
2023/09/08 06:19:33;;;;;;;22.38;15.23;;;17.10;99.90;;;;;;5097184;28;20047;-70
2023/09/08 06:21:59;;;;;;;20.67;14.45;;;17.90;99.90;;;;;;5096597;28;20510;-70
2023/09/08 06:24:25;;;;;;;20.20;14.85;;;;;;;;;;5097132;28;20047;-70
2023/09/08 06:26:51;;;;;;;24.77;14.23;;;;;;;;;;5096993;28;20040;-70
2023/09/08 06:29:17;;;;;;;18.48;14.30;;;17.10;99.90;;;;;;5097091;28;20139;-70
2023/09/08 06:31:43;;;;;;;17.20;14.30;;;18.90;99.90;;;;;;5096011;28;20484;-71
2023/09/08 06:34:08;;;;;;;25.92;15.45;;;18.90;99.90;;;;;;5079625;28;20503;-70
2023/09/08 06:36:34;;;;;;;18.98;13.73;;;18.90;99.90;;;;;;5114805;28;20096;-70
2023/09/08 06:39:00;;;;;;;19.92;14.15;;;18.80;99.90;;;;;;5097089;28;20099;-70
2023/09/08 06:41:27;;;;;;;20.02;14.80;;;;;;;;;;5096853;28;20071;-69
2023/09/08 06:43:53;;;;;;;20.15;14.63;;;;;;;;;;5097100;28;20048;-70
2023/09/08 06:46:19;;;;;;;19.60;13.88;;;;;;;;;;5096936;28;20044;-69
2023/09/08 06:48:45;;;;;;;21.95;14.63;;;18.40;99.90;;;;;;5063670;28;20035;-69
2023/09/08 06:51:11;;;;;;;19.52;15.07;;;;;;;;;;5079690;28;20459;-69
2023/09/08 06:53:37;;;;;;;18.25;13.98;;;18.20;99.90;;;;;;5096557;28;20035;-70
2023/09/08 06:56:03;;;;;;;21.92;14.35;;;17.90;99.90;;;;;;5096494;28;20554;-70
2023/09/08 06:58:28;;;;;;;19.70;13.85;;;17.80;99.90;;;;;;5079506;28;20059;-70
2023/09/08 07:00:54;;;;;;;18.90;14.38;;;18.60;99.90;;;;;;5080080;28;20055;-70
2023/09/08 07:03:22;;;;;;;22.55;14.30;;;17.60;99.90;;;;;;5096456;28;20131;-71
2023/09/08 07:05:49;;;;;;;22.65;14.50;;;17.80;99.90;;;;;;5114815;28;20503;-70
2023/09/08 07:08:15;;;;;;;22.17;13.90;;;;;;;;;;5096263;28;20548;-71
2023/09/08 07:10:40;;;;;;;22.40;13.75;;;19.60;99.90;;;;;;5080140;28;20118;-71
2023/09/08 07:13:07;;;;;;;16.48;13.55;;;;;;;;;;5096657;28;20113;-70
2023/09/08 07:15:32;;;;;;;24.42;14.38;;;19.10;99.90;;;;;;5096733;28;20096;-70
2023/09/08 07:17:58;;;;;;;17.35;14.00;;;;;;;;;;5096429;28;20052;-70
2023/09/08 07:20:24;;;;;;;17.45;13.38;;;19.10;99.90;;;;;;5096507;28;20043;-70
2023/09/08 07:22:50;;;;;;;18.75;13.50;;;;;;;;;;5079711;28;20552;-70
2023/09/08 07:25:16;;;;;;;19.38;14.20;;;18.00;99.90;;;;;;5079274;28;20039;-71
2023/09/08 07:27:42;;;;;;;19.52;13.88;;;;;;;;;;5079910;28;20141;-71
2023/09/08 07:30:08;;;;;;;17.88;14.23;;;18.50;99.90;;;;;;5096387;28;20499;-71
2023/09/08 07:32:34;;;;;;;21.90;14.55;;;20.20;99.90;;;;;;5096285;28;20518;-71
2023/09/08 07:35:00;;;;;;;18.38;14.63;;;;;;;;;;5096379;28;20099;-70
2023/09/08 07:37:26;;;;;;;18.73;14.48;;;18.40;99.90;;;;;;5096266;28;20047;-71
2023/09/08 07:39:52;;;;;;;20.10;14.05;;;;;;;;;;5096481;28;20042;-71
2023/09/08 07:42:18;;;;;;;21.30;15.23;;;19.30;99.90;;;;;;5096712;28;20043;-70
2023/09/08 07:44:45;;;;;;;19.23;14.48;;;20.20;99.90;;;;;;5079811;28;20042;-70
2023/09/08 07:47:11;;;;;;;21.15;14.10;;;20.40;99.90;;;;;;5096391;28;20043;-71
2023/09/08 07:49:37;;;;;;;17.98;13.77;;;;;;;;;;5080414;28;20081;-71
2023/09/08 07:52:04;;;;;;;21.48;14.55;;;20.20;99.90;;;;;;5097298;28;20039;-71
2023/09/08 07:54:30;;;;;;;19.50;14.60;;;18.60;99.90;;;;;;5118944;28;20054;-71
2023/09/08 07:56:56;;;;;;;18.30;14.63;;;19.10;99.90;;;;;;5118913;28;20055;-71
2023/09/08 07:59:22;;;;;;;22.77;14.57;;;20.40;99.90;;;;;;5117892;28;20020;-71
2023/09/08 08:01:48;;;;;;;18.63;13.85;;;;;;;;;;5083949;28;20105;-72
2023/09/08 08:04:13;;;;;;;21.10;14.80;;;20.40;99.90;;;;;;5098135;28;20040;-72
2023/09/08 08:06:40;;;;;;;21.25;14.85;;;;;;;;;;5114349;28;20024;-71
2023/09/08 08:09:05;;;;;;;19.45;13.88;;;20.80;99.90;;;;;;5101549;28;20046;-75
2023/09/08 08:11:31;;;;;;;22.02;14.48;;;20.90;99.90;;;;;;5079423;28;20399;-69
2023/09/08 08:13:57;;;;;;;22.85;14.27;;;20.50;99.90;;;;;;5098250;28;20050;-68
2023/09/08 08:16:24;;;;;;;19.92;14.10;;;;;;;;;;5097921;28;20047;-68
2023/09/08 08:18:50;;;;;;;21.98;14.18;;;21.20;99.90;;;;;;5079330;28;20044;-70
2023/09/08 08:21:15;;;;;;;19.92;13.75;;;19.70;99.90;;;;;;5078095;28;20126;-71
2023/09/08 08:23:41;;;;;;;21.75;14.00;;;20.20;99.90;;;;;;5094674;28;20118;-70
2023/09/08 08:26:07;;;;;;;21.20;14.18;;;20.40;99.90;;;;;;5094850;28;20039;-70
2023/09/08 08:28:33;;;;;;;20.90;14.05;;;;;;;;;;5061475;28;20043;-69
2023/09/08 08:30:59;;;;;;;22.63;14.48;;;20.00;99.90;;;;;;5094959;28;20126;-70
2023/09/08 08:33:25;;;;;;;24.45;14.57;;;21.30;99.90;;;;;;5095064;28;20126;-77
2023/09/08 08:35:53;;;;;;;20.73;14.50;;;21.50;99.90;;;;;;5112885;28;20052;-76
2023/09/08 08:38:19;;;;;;;18.58;14.10;;;20.20;99.90;;;;;;5078145;28;20036;-70
2023/09/08 08:40:45;;;;;;;19.42;14.30;;;20.30;99.90;;;;;;5094772;28;20047;-70
2023/09/08 08:43:11;;;;;;;20.00;13.60;;;21.90;99.90;;;;;;5094746;28;20044;-70
2023/09/08 08:45:41;;;;;;;20.45;14.38;;;20.40;99.90;;;;;;5078075;28;20046;-70
2023/09/08 08:48:08;;;;;;;22.90;15.80;;;20.60;99.90;;;;;;5077892;28;20044;-76
2023/09/08 08:50:36;;;;;;;22.40;14.93;;;20.60;99.90;;;;;;5094769;28;20046;-76
2023/09/08 08:53:02;;;;;;;22.05;14.85;;;22.10;99.90;;;;;;5094770;28;20039;-76
2023/09/08 08:55:30;;;;;;;17.17;13.20;;;20.70;99.90;;;;;;5078836;28;20479;-76
2023/09/08 08:58:03;;;;;;;24.95;14.25;;;21.60;99.90;;;;;;5098551;28;20039;-76
2023/09/08 09:00:30;;;;;;;23.85;13.73;;;;;;;;;;5081179;28;20039;-70
2023/09/08 09:02:56;;;;;;;22.45;14.88;;;;;;;;;;5098245;28;20345;-71
2023/09/08 09:05:22;;;;;;;21.65;13.90;;;;;;;;;;5098310;28;20556;-77
2023/09/08 09:07:49;;;;;;;21.98;13.80;;;22.40;99.90;;;;;;5098396;28;20401;-77
2023/09/08 09:10:15;;;;;;;21.08;13.05;;;21.80;99.90;;;;;;5098202;28;20180;-77
2023/09/08 09:12:41;;;;;;;20.00;12.60;;;21.80;99.90;;;;;;5081190;28;20189;-77
2023/09/08 09:15:11;;;;;;;21.50;14.15;;;;;;;;;;5098419;28;20044;-77
2023/09/08 09:17:38;;;;;;;21.88;13.38;;;;;;;;;;5098009;28;20051;-77
2023/09/08 09:20:17;;;;;;;20.67;13.43;;;22.40;99.60;;;;;;5097931;28;20051;-69
2023/09/08 09:22:43;;;;;;;18.23;12.13;;;;;;;;;;5093610;28;20043;-70
2023/09/08 09:25:10;;;;;;;20.27;12.43;;;23.10;99.90;;;;;;5097547;28;20564;-76
2023/09/08 09:27:38;;;;;;;18.83;12.05;;;22.20;99.90;;;;;;5097981;28;20036;-76
2023/09/08 09:30:05;;;;;;;18.42;12.93;;;22.90;98.60;;;;;;5097746;28;20066;-76
2023/09/08 09:32:31;;;;;;;19.73;11.73;;;23.00;99.90;;;;;;5097771;28;20630;-76
2023/09/08 09:35:00;;;;;;;18.38;11.88;;;23.50;99.90;;;;;;5097378;28;20056;-71
2023/09/08 09:37:27;;;;;;;17.05;12.20;;;;;;;;;;5081088;28;20035;-70
2023/09/08 09:39:55;;;;;;;17.05;12.18;;;23.80;99.90;;;;;;5098121;28;20101;-77
2023/09/08 09:42:22;;;;;;;16.75;11.60;;;22.80;98.50;;;;;;5097645;28;20099;-70
2023/09/08 09:44:49;;;;;;;19.60;12.23;;;23.10;99.90;;;;;;5080855;28;20039;-76
2023/09/08 09:47:16;;;;;;;25.73;12.07;;;22.70;98.40;;;;;;5080867;28;20153;-76
2023/09/08 09:49:43;;;;;;;15.95;11.73;;;24.00;99.90;;;;;;5080383;28;20482;-76
2023/09/08 09:52:13;;;;;;;19.50;12.82;;;24.20;99.90;;;;;;5097098;28;20042;-76
2023/09/08 09:54:43;;;;;;;17.40;11.75;;;24.10;99.90;;;;;;5097137;28;20046;-71
2023/09/08 09:57:15;;;;;;;19.27;11.35;;;24.10;98.20;;;;;;5097079;28;20499;-71
2023/09/08 09:59:41;;;;;;;;;;;23.80;98.50;;;;;;5097507;28;20057;-70
2023/09/08 10:02:13;;;;;;;17.13;11.32;;;24.00;99.90;;;;;;5080237;28;19920;-71
2023/09/08 10:04:43;;;;;;;13.32;11.48;;;23.70;99.90;;;;;;5096715;28;20031;-76
2023/09/08 10:07:09;;;;;;;19.08;12.95;;;24.10;99.90;;;;;;5097019;28;20070;-77
2023/09/08 10:09:38;;;;;;;19.58;12.40;;;23.60;99.90;;;;;;5079863;28;20040;-77
2023/09/08 10:12:05;;;;;;;19.88;11.52;;;24.00;97.40;;;;;;5063716;28;20036;-77
2023/09/08 10:14:35;;;;;;;13.77;10.38;;;24.90;97.70;;;;;;5079981;28;20126;-71
2023/09/08 10:17:02;;;;;;;19.10;10.50;;;24.50;97.20;;;;;;5096509;28;20372;-70
2023/09/08 10:19:28;;;;;;;16.55;10.52;;;24.60;99.90;;;;;;5079709;28;20506;-69
2023/09/08 10:22:00;;;;;;;13.00;9.27;;;24.90;99.90;;;;;;5079612;28;20042;-71
2023/09/08 10:24:28;;;;;;;14.18;10.07;;;24.70;96.60;;;;;;5079450;28;20043;-77
2023/09/08 10:27:09;;;;;;;19.08;10.30;;;24.80;99.90;;;;;;5080197;28;20134;-77
2023/09/08 10:29:36;;;;;;;17.02;9.68;;;24.50;95.90;;;;;;5096514;28;20075;-77
2023/09/08 10:32:03;;;;;;;13.45;10.07;;;24.90;96.40;;;;;;5096717;28;20043;-77
2023/09/08 10:34:30;;;;;;;14.65;9.05;;;25.10;96.20;;;;;;5096658;28;20047;-77
2023/09/08 10:36:56;;;;;;;16.33;9.35;;;24.50;96.20;;;;;;5092856;28;20109;-77
2023/09/08 10:39:37;;;;;;;12.63;8.90;;;25.00;94.90;;;;;;5093103;28;20044;-77
2023/09/08 10:42:32;;;;;;;13.00;9.00;;;25.50;94.90;;;;;;5076068;28;20499;-77
2023/09/08 10:45:13;;;;;;;13.85;9.15;;;25.50;99.40;;;;;;5072300;28;20060;-77
2023/09/08 10:47:57;;;;;;;14.45;9.27;;;25.20;99.10;;;;;;5092944;28;20044;-77
2023/09/08 10:50:40;;;;;;;11.77;8.48;;;25.20;98.90;;;;;;5092894;28;20036;-77
2023/09/08 10:53:16;;;;;;;20.75;8.68;;;25.50;98.80;;;;;;5092906;28;20048;-78
2023/09/08 10:55:47;;;;;;;12.82;9.25;;;25.00;98.40;;;;;;5093325;28;20044;-78
2023/09/08 10:58:19;;;;;;;17.33;9.27;;;26.00;98.50;;;;;;5092856;28;20068;-78
2023/09/08 11:00:54;;;;;;;11.85;9.15;;;25.60;98.20;;;;;;5076156;28;20040;-77
2023/09/08 11:03:38;;;;;;;14.32;8.45;;;25.90;98.20;;;;;;5092549;28;20044;-78
2023/09/08 11:06:08;;;;;;;11.95;9.02;;;25.70;96.50;;;;;;5075756;28;20039;-78
2023/09/08 11:08:36;;;;;;;13.50;8.65;;;25.70;94.20;;;;;;5075795;28;20042;-78
2023/09/08 11:11:02;;;;;;;11.52;8.20;;;26.70;97.30;;;;;;5092597;28;20044;-78
2023/09/08 11:13:28;;;;;;;14.60;7.95;;;26.80;97.70;;;;;;5092427;28;20055;-78
2023/09/08 11:15:54;;;;;;;16.23;8.18;;;26.40;97.00;;;;;;5093486;28;20040;-78
2023/09/08 11:18:30;;;;;;;10.98;6.97;;;26.80;97.40;;;;;;5074833;28;20036;-78
2023/09/08 11:20:57;;;;;;;8.90;7.43;;;26.70;93.20;;;;;;5076437;28;20040;-77
2023/09/08 11:23:24;;;;;;;11.98;7.40;;;26.00;97.00;;;;;;5092491;28;20059;-77
2023/09/08 11:25:51;;;;;;;9.48;7.57;;;26.50;96.80;;;;;;5092431;28;20063;-78
2023/09/08 11:28:17;;;;;;;13.18;7.10;;;27.20;96.70;;;;;;5092231;28;20050;-73
2023/09/08 11:30:46;;;;;;;9.10;6.57;;;26.70;92.90;;;;;;5075564;28;20040;-72
2023/09/08 11:33:17;;;;;;;12.40;7.00;;;26.80;91.90;;;;;;5075381;28;20043;-71
2023/09/08 11:35:45;;;;;;;12.02;6.95;;;26.80;96.50;;;;;;5092289;28;20064;-71
2023/09/08 11:38:11;;;;;;;8.88;6.90;;;27.00;92.70;;;;;;5092318;28;20044;-71
2023/09/08 11:40:37;;;;;;;10.35;6.90;;;26.90;95.90;;;;;;5092589;28;20036;-71
2023/09/08 11:43:07;;;;;;;8.43;6.65;;;26.50;95.50;;;;;;5091966;28;20052;-71
2023/09/08 11:45:36;;;;;;;9.55;6.80;;;27.40;95.80;;;;;;5092185;28;20040;-71
2023/09/08 11:48:04;;;;;;;8.20;6.68;;;27.40;95.70;;;;;;5092444;28;20126;-70
2023/09/08 11:50:30;;;;;;;10.15;6.65;;;27.80;94.20;;;;;;5091991;28;20052;-70
2023/09/08 11:52:58;;;;;;;11.95;6.70;;;27.80;95.40;;;;;;5091960;28;20040;-70
2023/09/08 11:55:25;;;;;;;13.00;6.35;;;27.30;95.10;;;;;;5081248;28;20050;-70
2023/09/08 11:58:02;;;;;;;9.18;6.28;;;27.80;95.00;;;;;;5113258;28;20110;-71
2023/09/08 12:00:29;;;;;;;9.52;7.05;;;27.10;94.60;;;;;;5112944;28;20074;-70
2023/09/08 12:02:55;;;;;;;8.88;6.82;;;28.10;91.40;;;;;;5113777;28;20171;-71
2023/09/08 12:05:26;;;;;;;9.00;6.78;;;28.10;94.40;;;;;;5111252;28;20090;-71
2023/09/08 12:07:56;;;;;;;9.98;7.05;;;28.00;94.40;;;;;;5109899;28;20024;-71
2023/09/08 12:10:22;;;;;;;14.10;7.03;;;28.30;94.10;;;;;;5093499;28;20051;-71
2023/09/08 12:12:53;;;;;;;8.80;6.60;;;28.10;93.10;;;;;;5110665;28;20051;-70
2023/09/08 12:15:39;;;;;;;9.90;6.15;;;28.30;93.90;;;;;;5111479;28;20044;-71
2023/09/08 12:18:15;;;;;;;10.18;7.10;;;28.50;90.40;;;;;;5077336;28;20509;-71
2023/09/08 12:20:41;;;;;;;12.38;6.47;;;28.50;94.00;;;;;;5092481;28;20052;-71
2023/09/08 12:23:21;;;;;;;9.45;6.70;;;28.30;88.40;;;;;;5091636;28;20052;-71
2023/09/08 12:25:48;;;;;;;11.30;6.40;;;27.90;93.50;;;;;;5091990;28;20044;-71
2023/09/08 12:28:14;;;;;;;6.93;6.07;;;;;;;;;;5074862;28;20036;-71
2023/09/08 12:30:40;;;;;;;12.13;6.95;;;28.70;90.80;;;;;;5093292;28;20097;-71
2023/09/08 12:33:07;;;;;;;9.38;6.40;;;29.00;92.20;;;;;;5095297;28;20079;-71
2023/09/08 12:35:34;;;;;;;9.27;6.90;;;28.80;93.40;;;;;;5095120;28;20048;-71
2023/09/08 12:38:05;;;;;;;9.52;6.43;;;28.60;92.50;;;;;;5095575;28;20073;-71
2023/09/08 12:40:37;;;;;;;10.27;6.23;;;29.00;93.10;;;;;;5095353;28;20051;-71
2023/09/08 12:43:03;;;;;;;8.43;6.80;;;28.80;92.80;;;;;;5095049;28;20078;-71
2023/09/08 12:45:29;;;;;;;10.55;6.65;;;28.70;92.60;;;;;;5078368;28;20492;-71
2023/09/08 12:47:59;;;;;;;8.98;6.25;;;29.30;89.90;;;;;;5095408;28;20032;-71
2023/09/08 12:50:25;;;;;;;8.57;6.20;;;28.90;87.90;;;;;;5095542;28;20389;-77
2023/09/08 12:52:52;;;;;;;11.70;6.55;;;;;;;;;;5095149;28;20048;-77